Time,TemperatureF,DewpointF,PressureIn,WindDirection,WindDirectionDegrees,WindSpeedMPH,WindSpeedGustMPH,Humidity,HourlyPrecipIn,Conditions,Clouds,dailyrainin,SolarRadiationWatts/m^2,SoftwareType,DateUTC
2013-04-21 00:01:00,52.0,44.0,-100.00,NE,36,7.0,16.0,74,0.00,,,0.00,1.000000,,2013-04-21 07:01:00,
2013-04-21 00:11:00,52.0,44.0,-100.00,NE,36,7.0,16.0,74,0.00,,,0.00,1.000000,,2013-04-21 07:11:00,
2013-04-21 00:21:00,52.0,44.0,-100.00,NE,36,7.0,16.0,74,0.00,,,0.00,1.000000,,2013-04-21 07:21:00,
2013-04-21 00:31:00,52.0,44.0,-100.00,NE,36,7.0,16.0,74,0.00,,,0.00,1.000000,,2013-04-21 07:31:00,
2013-04-21 01:01:00,49.0,44.0,-100.00,ESE,118,6.0,11.0,83,0.00,,,0.00,1.000000,,2013-04-21 08:01:00,
2013-04-21 01:12:00,49.0,44.0,-100.00,ESE,118,6.0,11.0,83,0.00,,,0.00,1.000000,,2013-04-21 08:12:00,
2013-04-21 01:21:00,49.0,44.0,-100.00,ESE,118,6.0,11.0,83,0.00,,,0.00,1.000000,,2013-04-21 08:21:00,
2013-04-21 01:32:00,49.0,44.0,-100.00,ESE,118,6.0,11.0,83,0.00,,,0.00,1.000000,,2013-04-21 08:32:00,
2013-04-21 02:01:00,46.0,42.0,-100.00,ENE,65,4.0,11.0,87,0.00,,,0.00,1.000000,,2013-04-21 09:01:00,
2013-04-21 02:11:00,46.0,42.0,-100.00,ENE,65,4.0,11.0,87,0.00,,,0.00,1.000000,,2013-04-21 09:11:00,
2013-04-21 02:21:00,46.0,42.0,-100.00,ENE,65,4.0,11.0,87,0.00,,,0.00,1.000000,,2013-04-21 09:21:00,
2013-04-21 02:32:00,46.0,42.0,-100.00,ENE,65,4.0,11.0,87,0.00,,,0.00,1.000000,,2013-04-21 09:32:00,
2013-04-21 03:02:00,46.0,43.0,-100.00,SE,124,7.0,11.0,88,0.00,,,0.00,1.000000,,2013-04-21 10:02:00,
2013-04-21 03:12:00,46.0,43.0,-100.00,SE,124,7.0,11.0,88,0.00,,,0.00,1.000000,,2013-04-21 10:12:00,
2013-04-21 03:22:00,46.0,43.0,-100.00,SE,124,7.0,11.0,88,0.00,,,0.00,1.000000,,2013-04-21 10:22:00,
2013-04-21 03:32:00,46.0,43.0,-100.00,SE,124,7.0,11.0,88,0.00,,,0.00,1.000000,,2013-04-21 10:32:00,
2013-04-21 04:02:00,44.0,42.0,-100.00,East,79,3.0,9.0,91,0.00,,,-99.99,1.000000,,2013-04-21 11:02:00,
2013-04-21 04:12:00,44.0,42.0,-100.00,East,79,3.0,9.0,91,0.00,,,-99.99,1.000000,,2013-04-21 11:12:00,
2013-04-21 04:22:00,44.0,42.0,-100.00,East,79,3.0,9.0,91,0.00,,,-99.99,1.000000,,2013-04-21 11:22:00,
2013-04-21 04:33:00,44.0,42.0,-100.00,East,79,3.0,9.0,91,0.00,,,-99.99,1.000000,,2013-04-21 11:33:00,
2013-04-21 05:02:00,43.0,41.0,-100.00,ENE,67,3.0,10.0,92,0.00,,,0.00,1.000000,,2013-04-21 12:02:00,
2013-04-21 05:12:00,43.0,41.0,-100.00,ENE,67,3.0,10.0,92,0.00,,,0.00,1.000000,,2013-04-21 12:12:00,
2013-04-21 05:22:00,43.0,41.0,-100.00,ENE,67,3.0,10.0,92,0.00,,,0.00,1.000000,,2013-04-21 12:22:00,
2013-04-21 05:31:00,43.0,41.0,-100.00,ENE,67,3.0,10.0,92,0.00,,,0.00,1.000000,,2013-04-21 12:31:00,
2013-04-21 06:01:00,42.0,41.0,-100.00,ENE,76,3.0,5.0,95,0.00,,,0.00,1.000000,,2013-04-21 13:01:00,
2013-04-21 06:11:00,42.0,41.0,-100.00,ENE,76,3.0,5.0,95,0.00,,,0.00,1.000000,,2013-04-21 13:11:00,
2013-04-21 06:21:00,42.0,41.0,-100.00,ENE,76,3.0,5.0,95,0.00,,,0.00,1.000000,,2013-04-21 13:21:00,
2013-04-21 06:32:00,42.0,41.0,-100.00,ENE,76,3.0,5.0,95,0.00,,,0.00,1.000000,,2013-04-21 13:32:00,
2013-04-21 07:01:00,42.0,41.0,-100.00,East,79,3.0,5.0,95,0.00,,,0.00,3.000000,,2013-04-21 14:01:00,
2013-04-21 07:11:00,42.0,41.0,-100.00,East,79,3.0,5.0,95,0.00,,,0.00,3.000000,,2013-04-21 14:11:00,
2013-04-21 07:21:00,42.0,41.0,-100.00,East,79,3.0,5.0,95,0.00,,,0.00,3.000000,,2013-04-21 14:21:00,
2013-04-21 07:31:00,42.0,41.0,-100.00,East,79,3.0,5.0,95,0.00,,,0.00,3.000000,,2013-04-21 14:31:00,
2013-04-21 08:02:00,43.0,41.0,-100.00,South,177,2.0,6.0,94,0.00,,,0.00,31.000000,,2013-04-21 15:02:00,
2013-04-21 08:11:00,43.0,41.0,-100.00,South,177,2.0,6.0,94,0.00,,,0.00,31.000000,,2013-04-21 15:11:00,
2013-04-21 08:22:00,43.0,41.0,-100.00,South,177,2.0,6.0,94,0.00,,,0.00,31.000000,,2013-04-21 15:22:00,
2013-04-21 08:33:00,43.0,41.0,-100.00,South,177,2.0,6.0,94,0.00,,,0.00,31.000000,,2013-04-21 15:33:00,
2013-04-21 09:03:00,49.0,44.0,-100.00,ESE,119,6.0,9.0,83,0.00,,,0.00,213.000000,,2013-04-21 16:03:00,
2013-04-21 09:12:00,49.0,44.0,-100.00,ESE,119,6.0,9.0,83,0.00,,,0.00,213.000000,,2013-04-21 16:12:00,
2013-04-21 09:22:00,49.0,44.0,-100.00,ESE,119,6.0,9.0,83,0.00,,,0.00,213.000000,,2013-04-21 16:22:00,
2013-04-21 09:32:00,49.0,44.0,-100.00,ESE,119,6.0,9.0,83,0.00,,,0.00,213.000000,,2013-04-21 16:32:00,
2013-04-21 10:02:00,56.0,46.0,-100.00,ESE,122,6.0,11.0,69,0.00,,,0.00,418.000000,,2013-04-21 17:02:00,
2013-04-21 10:12:00,56.0,46.0,-100.00,ESE,122,6.0,11.0,69,0.00,,,0.00,418.000000,,2013-04-21 17:12:00,
2013-04-21 10:22:00,56.0,46.0,-100.00,ESE,122,6.0,11.0,69,0.00,,,0.00,418.000000,,2013-04-21 17:22:00,
2013-04-21 10:32:00,56.0,46.0,-100.00,ESE,122,6.0,11.0,69,0.00,,,0.00,418.000000,,2013-04-21 17:32:00,
2013-04-21 11:02:00,62.0,46.0,-100.00,SE,133,6.0,11.0,56,0.00,,,0.00,556.000000,,2013-04-21 18:02:00,
2013-04-21 11:11:00,62.0,46.0,-100.00,SE,133,6.0,11.0,56,0.00,,,0.00,556.000000,,2013-04-21 18:11:00,
2013-04-21 11:21:00,62.0,46.0,-100.00,SE,133,6.0,11.0,56,0.00,,,0.00,556.000000,,2013-04-21 18:21:00,
2013-04-21 11:32:00,62.0,46.0,-100.00,SE,133,6.0,11.0,56,0.00,,,0.00,556.000000,,2013-04-21 18:32:00,
2013-04-21 12:02:00,68.0,43.0,-100.00,East,96,5.0,9.0,40,0.00,,,0.00,685.000000,,2013-04-21 19:02:00,
2013-04-21 12:31:00,68.0,43.0,-100.00,East,96,5.0,9.0,40,0.00,,,0.00,685.000000,,2013-04-21 19:31:00,
2013-04-21 13:01:00,72.0,44.0,-100.00,NNW,338,6.0,19.0,36,0.00,,,0.00,825.000000,,2013-04-21 20:01:00,
2013-04-21 13:31:00,72.0,44.0,-100.00,NNW,338,6.0,19.0,36,0.00,,,0.00,825.000000,,2013-04-21 20:31:00,
2013-04-21 14:02:00,72.0,44.0,-100.00,North,358,11.0,18.0,37,0.00,,,0.00,880.000000,,2013-04-21 21:02:00,
2013-04-21 14:12:00,72.0,44.0,-100.00,North,358,11.0,18.0,37,0.00,,,0.00,880.000000,,2013-04-21 21:12:00,
2013-04-21 14:21:00,72.0,44.0,-100.00,North,358,11.0,18.0,37,0.00,,,0.00,880.000000,,2013-04-21 21:21:00,
2013-04-21 14:32:00,72.0,44.0,-100.00,North,358,11.0,18.0,37,0.00,,,0.00,880.000000,,2013-04-21 21:32:00,
2013-04-21 15:02:00,72.0,44.0,-100.00,NNE,19,15.0,23.0,37,0.00,,,0.00,847.000000,,2013-04-21 22:02:00,
2013-04-21 15:12:00,72.0,44.0,-100.00,NNE,19,15.0,23.0,37,0.00,,,0.00,847.000000,,2013-04-21 22:12:00,
2013-04-21 15:22:00,72.0,44.0,-100.00,NNE,19,15.0,23.0,37,0.00,,,0.00,847.000000,,2013-04-21 22:22:00,
2013-04-21 15:32:00,72.0,44.0,-100.00,NNE,19,15.0,23.0,37,0.00,,,0.00,847.000000,,2013-04-21 22:32:00,
2013-04-21 16:02:00,72.0,44.0,-100.00,North,1,13.0,26.0,37,0.00,,,0.00,793.000000,,2013-04-21 23:02:00,
2013-04-21 16:12:00,72.0,44.0,-100.00,North,1,13.0,26.0,37,0.00,,,0.00,793.000000,,2013-04-21 23:12:00,
2013-04-21 16:22:00,72.0,44.0,-100.00,North,1,13.0,26.0,37,0.00,,,0.00,793.000000,,2013-04-21 23:22:00,
2013-04-21 16:32:00,72.0,44.0,-100.00,North,1,13.0,26.0,37,0.00,,,0.00,793.000000,,2013-04-21 23:32:00,
2013-04-21 17:01:00,72.0,46.0,-100.00,North,353,10.0,21.0,39,0.00,,,0.00,671.000000,,2013-04-22 00:01:00,
2013-04-21 17:11:00,72.0,46.0,-100.00,North,353,10.0,21.0,39,0.00,,,0.00,671.000000,,2013-04-22 00:11:00,
2013-04-21 17:21:00,72.0,46.0,-100.00,North,353,10.0,21.0,39,0.00,,,0.00,671.000000,,2013-04-22 00:21:00,
2013-04-21 17:31:00,72.0,46.0,-100.00,North,353,10.0,21.0,39,0.00,,,0.00,671.000000,,2013-04-22 00:31:00,
2013-04-21 18:01:00,70.0,46.0,-100.00,NNW,348,13.0,20.0,43,0.00,,,0.00,475.000000,,2013-04-22 01:01:00,
2013-04-21 18:12:00,70.0,46.0,-100.00,NNW,348,13.0,20.0,43,0.00,,,0.00,475.000000,,2013-04-22 01:12:00,
2013-04-21 18:21:00,70.0,46.0,-100.00,NNW,348,13.0,20.0,43,0.00,,,0.00,475.000000,,2013-04-22 01:21:00,
2013-04-21 18:32:00,70.0,46.0,-100.00,NNW,348,13.0,20.0,43,0.00,,,0.00,475.000000,,2013-04-22 01:32:00,
2013-04-21 19:01:00,67.0,48.0,-100.00,North,353,10.0,19.0,51,0.00,,,0.00,278.000000,,2013-04-22 02:01:00,
2013-04-21 19:11:00,67.0,48.0,-100.00,North,353,10.0,19.0,51,0.00,,,0.00,278.000000,,2013-04-22 02:11:00,
2013-04-21 19:21:00,67.0,48.0,-100.00,North,353,10.0,19.0,51,0.00,,,0.00,278.000000,,2013-04-22 02:21:00,
2013-04-21 19:31:00,67.0,48.0,-100.00,North,353,10.0,19.0,51,0.00,,,0.00,278.000000,,2013-04-22 02:31:00,
2013-04-21 20:02:00,64.0,47.0,-100.00,NNE,14,4.0,16.0,55,0.00,,,0.00,135.000000,,2013-04-22 03:02:00,
2013-04-21 20:11:00,64.0,47.0,-100.00,NNE,14,4.0,16.0,55,0.00,,,0.00,135.000000,,2013-04-22 03:11:00,
2013-04-21 20:22:00,64.0,47.0,-100.00,NNE,14,4.0,16.0,55,0.00,,,0.00,135.000000,,2013-04-22 03:22:00,
2013-04-21 20:33:00,64.0,47.0,-100.00,NNE,14,4.0,16.0,55,0.00,,,0.00,135.000000,,2013-04-22 03:33:00,
2013-04-21 21:02:00,59.0,48.0,-100.00,West,259,2.0,10.0,68,0.00,,,0.00,8.000000,,2013-04-22 04:02:00,
2013-04-21 21:12:00,59.0,48.0,-100.00,West,259,2.0,10.0,68,0.00,,,0.00,8.000000,,2013-04-22 04:12:00,
2013-04-21 21:23:00,59.0,48.0,-100.00,West,259,2.0,10.0,68,0.00,,,0.00,8.000000,,2013-04-22 04:23:00,
2013-04-21 21:32:00,59.0,48.0,-100.00,West,259,2.0,10.0,68,0.00,,,0.00,8.000000,,2013-04-22 04:32:00,
2013-04-21 22:02:00,55.0,49.0,-100.00,ENE,68,0.0,5.0,79,0.00,,,0.00,1.000000,,2013-04-22 05:02:00,
2013-04-21 22:11:00,55.0,49.0,-100.00,ENE,68,0.0,5.0,79,0.00,,,0.00,1.000000,,2013-04-22 05:11:00,
2013-04-21 22:22:00,55.0,49.0,-100.00,ENE,68,0.0,5.0,79,0.00,,,0.00,1.000000,,2013-04-22 05:22:00,
2013-04-21 22:32:00,55.0,49.0,-100.00,ENE,68,0.0,5.0,79,0.00,,,0.00,1.000000,,2013-04-22 05:32:00,
2013-04-21 23:02:00,51.0,48.0,-100.00,SE,129,0.0,4.0,89,0.00,,,0.00,1.000000,,2013-04-22 06:02:00,
2013-04-21 23:12:00,51.0,48.0,-100.00,SE,129,0.0,4.0,89,0.00,,,0.00,1.000000,,2013-04-22 06:12:00,
2013-04-21 23:21:00,51.0,48.0,-100.00,SE,129,0.0,4.0,89,0.00,,,0.00,1.000000,,2013-04-22 06:21:00,
2013-04-21 23:32:00,51.0,48.0,-100.00,SE,129,0.0,4.0,89,0.00,,,0.00,1.000000,,2013-04-22 06:32:00,